Time;durP1;ratioP1;P1;durP2;ratioP2;P2;SDS_P1;SDS_P2;PMS_P1;PMS_P2;Temp;Humidity;BMP_temperature;BMP_pressure;BME280_temperature;BME280_humidity;BME280_pressure;Samples;Min_cycle;Max_cycle;Signal;HPM_P1;HPM_P2
2022/04/03 00:00:20;;;;;;;13.17;11.80;;;;;;;;;;5013662;28;20745;-54
2022/04/03 00:02:46;;;;;;;13.17;11.87;;;;;;;;;;5013039;28;20250;-55
2022/04/03 00:05:11;;;;;;;13.50;12.03;;;2.20;99.90;;;;;;5013658;28;20323;-51
2022/04/03 00:07:37;;;;;;;12.17;10.97;;;2.20;99.90;;;;;;5013200;28;20187;-54
2022/04/03 00:10:03;;;;;;;12.17;10.97;;;2.30;99.90;;;;;;5013518;28;20596;-51
2022/04/03 00:12:28;;;;;;;13.03;11.63;;;2.30;99.90;;;;;;5012588;28;20804;-55
2022/04/03 00:14:54;;;;;;;11.87;10.63;;;2.30;99.90;;;;;;5013339;28;20664;-51
2022/04/03 00:17:20;;;;;;;11.57;10.47;;;2.20;99.90;;;;;;5028675;28;20172;-50
2022/04/03 00:19:45;;;;;;;13.90;12.50;;;2.40;99.90;;;;;;5013359;28;20638;-50
2022/04/03 00:22:11;;;;;;;11.43;10.30;;;2.40;99.90;;;;;;5012573;28;20216;-55
2022/04/03 00:24:37;;;;;;;11.07;9.87;;;2.30;99.90;;;;;;5012146;28;20192;-51
2022/04/03 00:27:03;;;;;;;11.43;10.33;;;2.60;99.90;;;;;;5013144;28;20185;-50
2022/04/03 00:29:29;;;;;;;12.10;10.73;;;2.40;99.90;;;;;;5011920;28;20181;-52
2022/04/03 00:31:55;;;;;;;11.23;10.03;;;2.70;99.90;;;;;;5012998;28;20215;-50
2022/04/03 00:34:20;;;;;;;11.03;9.93;;;2.60;99.90;;;;;;5012094;28;20169;-50
2022/04/03 00:36:46;;;;;;;9.97;9.03;;;2.80;99.90;;;;;;5011960;28;20184;-54
2022/04/03 00:39:11;;;;;;;10.20;9.20;;;2.30;99.90;;;;;;5021515;28;20168;-50
2022/04/03 00:41:39;;;;;;;9.70;8.80;;;2.40;99.90;;;;;;5031274;28;20192;-50
2022/04/03 00:44:05;;;;;;;10.90;9.67;;;2.60;99.90;;;;;;5032183;28;20183;-52
2022/04/03 00:46:33;;;;;;;10.30;9.30;;;2.60;99.90;;;;;;5032407;28;20175;-51
2022/04/03 00:49:00;;;;;;;10.03;9.03;;;2.80;99.90;;;;;;5032525;28;20172;-53
2022/04/03 00:51:26;;;;;;;9.70;8.80;;;2.90;99.90;;;;;;5032084;28;20207;-50
2022/04/03 00:53:52;;;;;;;10.03;8.93;;;2.70;99.90;;;;;;5032181;28;20172;-54
2022/04/03 00:56:18;;;;;;;9.63;8.73;;;2.60;99.90;;;;;;5032419;28;20633;-55
2022/04/03 00:58:44;;;;;;;9.63;8.73;;;2.50;99.90;;;;;;5032957;28;20196;-54
2022/04/03 01:01:09;;;;;;;9.20;8.30;;;2.70;99.90;;;;;;5032421;28;20514;-56
2022/04/03 01:03:35;;;;;;;10.50;8.50;;;2.70;99.90;;;;;;5032213;28;20237;-50
2022/04/03 01:06:01;;;;;;;9.23;8.33;;;2.80;99.90;;;;;;5047379;28;20705;-50
2022/04/03 01:08:27;;;;;;;9.13;8.23;;;2.70;99.90;;;;;;5032092;28;20203;-51
2022/04/03 01:10:53;;;;;;;9.70;8.70;;;3.00;99.90;;;;;;5031998;28;20565;-50
2022/04/03 01:13:19;;;;;;;8.87;7.97;;;3.00;99.90;;;;;;5031781;28;20188;-50
2022/04/03 01:16:00;;;;;;;8.90;8.07;;;2.90;99.90;;;;;;5031992;28;20172;-52
2022/04/03 01:18:27;;;;;;;9.47;8.47;;;2.90;99.90;;;;;;5031782;28;20788;-51
2022/04/03 01:20:53;;;;;;;8.93;8.03;;;;;;;;;;5032015;28;20191;-54
2022/04/03 01:23:20;;;;;;;9.93;8.43;;;3.20;99.90;;;;;;5031255;28;20208;-53
2022/04/03 01:25:45;;;;;;;8.27;7.43;;;3.20;99.90;;;;;;5032052;28;20175;-50
2022/04/03 01:28:11;;;;;;;8.37;7.37;;;3.10;99.90;;;;;;5031778;28;20258;-50
2022/04/03 01:30:37;;;;;;;8.10;7.30;;;;;;;;;;5031697;28;20656;-57
2022/04/03 01:33:03;;;;;;;8.80;8.00;;;3.00;99.90;;;;;;5031244;28;20546;-50
2022/04/03 01:35:29;;;;;;;8.67;7.87;;;3.00;99.90;;;;;;5031903;28;20171;-51
2022/04/03 01:37:54;;;;;;;8.43;7.53;;;3.00;99.90;;;;;;5031747;28;20179;-51
2022/04/03 01:40:20;;;;;;;8.73;7.93;;;2.90;99.90;;;;;;5031514;28;20313;-51
2022/04/03 01:42:45;;;;;;;7.80;7.10;;;2.90;99.90;;;;;;5031467;28;20257;-51
2022/04/03 01:45:11;;;;;;;9.40;8.50;;;2.80;99.90;;;;;;5031560;28;20187;-50
2022/04/03 01:47:37;;;;;;;8.03;7.23;;;3.00;99.90;;;;;;5031512;28;20191;-50
2022/04/03 01:50:06;;;;;;;8.70;7.77;;;2.90;99.90;;;;;;5034676;28;20182;-50
2022/04/03 01:52:31;;;;;;;8.97;8.07;;;3.10;99.90;;;;;;5035368;28;20211;-49
2022/04/03 01:54:59;;;;;;;8.50;7.70;;;3.20;99.90;;;;;;5035553;28;20180;-50
2022/04/03 01:57:25;;;;;;;8.37;7.53;;;;;;;;;;5035677;28;20195;-53
2022/04/03 01:59:51;;;;;;;10.03;7.93;;;3.20;99.90;;;;;;5035448;28;20588;-51
2022/04/03 02:02:16;;;;;;;10.37;7.70;;;3.20;99.90;;;;;;5035209;28;20293;-50
2022/04/03 02:04:42;;;;;;;8.77;7.87;;;3.10;99.90;;;;;;5050839;28;20183;-50
2022/04/03 02:07:07;;;;;;;9.37;8.47;;;3.00;99.90;;;;;;5035310;28;20633;-53
2022/04/03 02:09:34;;;;;;;11.37;9.20;;;2.90;99.90;;;;;;5035525;28;20698;-51
2022/04/03 02:11:59;;;;;;;8.70;7.90;;;2.90;99.90;;;;;;5034990;28;20204;-50
2022/04/03 02:14:25;;;;;;;9.23;8.33;;;3.00;99.90;;;;;;5035106;28;20174;-50
2022/04/03 02:16:57;;;;;;;10.77;8.43;;;2.90;99.90;;;;;;5035108;28;20214;-52
2022/04/03 02:19:24;;;;;;;9.73;8.73;;;2.80;99.90;;;;;;5035459;28;20195;-49
2022/04/03 02:21:49;;;;;;;9.07;8.17;;;2.90;99.90;;;;;;5034270;28;20285;-50
2022/04/03 02:24:15;;;;;;;9.23;8.37;;;;;;;;;;5034699;28;20649;-53
2022/04/03 02:26:42;;;;;;;9.63;8.73;;;2.70;99.90;;;;;;5034222;28;20172;-53
2022/04/03 02:29:07;;;;;;;9.47;8.27;;;2.60;99.90;;;;;;5035053;28;20176;-51
2022/04/03 02:31:34;;;;;;;9.30;8.40;;;;;;;;;;5034782;28;20273;-51
2022/04/03 02:34:00;;;;;;;9.23;8.33;;;;;;;;;;5034568;28;20171;-54
2022/04/03 02:36:25;;;;;;;9.97;8.97;;;;;;;;;;5035014;28;20186;-54
2022/04/03 02:38:51;;;;;;;9.77;8.80;;;3.10;99.90;;;;;;5034766;28;20176;-51
2022/04/03 02:41:17;;;;;;;9.37;8.40;;;2.70;99.90;;;;;;5034771;28;20202;-51
2022/04/03 02:43:43;;;;;;;9.60;8.70;;;;;;;;;;5034358;28;20176;-53
2022/04/03 02:46:09;;;;;;;9.70;8.73;;;2.70;99.90;;;;;;5034827;28;20244;-52
2022/04/03 02:48:35;;;;;;;10.57;9.00;;;;;;;;;;5034606;28;20172;-54
2022/04/03 02:51:01;;;;;;;10.10;9.13;;;2.80;99.90;;;;;;5034702;28;20206;-54
2022/04/03 02:53:27;;;;;;;9.90;8.90;;;2.70;99.90;;;;;;5031747;28;20184;-50
2022/04/03 02:55:53;;;;;;;10.03;9.03;;;;;;;;;;5027548;28;20188;-53
2022/04/03 02:58:19;;;;;;;9.80;8.80;;;2.80;99.90;;;;;;5031922;28;20172;-55
2022/04/03 03:00:45;;;;;;;11.10;9.40;;;2.80;99.90;;;;;;5021687;28;20190;-51
2022/04/03 03:03:11;;;;;;;10.27;9.17;;;2.80;99.90;;;;;;5018043;28;20200;-54
2022/04/03 03:05:38;;;;;;;10.30;9.20;;;2.80;99.90;;;;;;5033597;28;20180;-51
2022/04/03 03:08:04;;;;;;;9.87;8.87;;;;;;;;;;5030105;28;20286;-55
2022/04/03 03:10:30;;;;;;;10.70;9.60;;;2.70;99.90;;;;;;5033594;28;20202;-53
2022/04/03 03:12:56;;;;;;;10.33;9.27;;;;;;;;;;5031277;28;20254;-52
2022/04/03 03:15:23;;;;;;;10.90;9.80;;;;;;;;;;5021892;28;20198;-54
2022/04/03 03:17:49;;;;;;;10.93;9.23;;;2.30;99.90;;;;;;5024846;28;20180;-50
2022/04/03 03:20:15;;;;;;;11.10;9.10;;;;;;;;;;5039530;28;20172;-53
2022/04/03 03:22:42;;;;;;;10.30;9.30;;;2.40;99.90;;;;;;5040207;28;20210;-51
2022/04/03 03:25:08;;;;;;;10.33;9.33;;;2.50;99.90;;;;;;5030120;28;20227;-51
2022/04/03 03:27:35;;;;;;;10.63;9.53;;;2.50;99.90;;;;;;5033194;28;20195;-52
2022/04/03 03:30:01;;;;;;;11.30;10.20;;;;;;;;;;5023431;28;20226;-55
2022/04/03 03:32:27;;;;;;;10.83;9.73;;;2.70;99.90;;;;;;5013728;28;20232;-51
2022/04/03 03:34:54;;;;;;;10.37;9.37;;;2.60;99.90;;;;;;5012883;28;20200;-54
2022/04/03 03:37:20;;;;;;;11.40;9.87;;;2.70;99.90;;;;;;5013018;28;20693;-54
2022/04/03 03:39:47;;;;;;;11.63;9.70;;;;;;;;;;5013853;28;20169;-54
2022/04/03 03:42:12;;;;;;;11.53;9.83;;;2.80;99.90;;;;;;5013688;28;20200;-52
2022/04/03 03:44:39;;;;;;;11.70;9.63;;;2.80;99.90;;;;;;5013633;28;20818;-54
2022/04/03 03:47:05;;;;;;;10.17;9.17;;;2.80;99.90;;;;;;5014005;28;20180;-54
2022/04/03 03:49:31;;;;;;;10.30;9.30;;;;;;;;;;5013757;28;20176;-53
2022/04/03 03:51:57;;;;;;;10.47;9.27;;;;;;;;;;5013461;28;20583;-55
2022/04/03 03:54:23;;;;;;;10.33;9.33;;;;;;;;;;5013504;28;20179;-53
2022/04/03 03:56:49;;;;;;;10.57;9.47;;;2.50;99.90;;;;;;5013527;28;20650;-52
2022/04/03 03:59:14;;;;;;;10.97;9.87;;;2.30;99.90;;;;;;5014137;28;20172;-55
2022/04/03 04:01:41;;;;;;;11.73;10.53;;;2.10;99.90;;;;;;5013918;28;20280;-55
2022/04/03 04:04:06;;;;;;;11.17;10.07;;;2.10;99.90;;;;;;5025845;28;20207;-55
2022/04/03 04:06:32;;;;;;;11.33;9.80;;;2.20;99.90;;;;;;5013836;28;20208;-51
2022/04/03 04:08:58;;;;;;;12.23;10.97;;;;;;;;;;5013393;28;20173;-53
2022/04/03 04:11:24;;;;;;;13.10;10.77;;;;;;;;;;5012880;28;20204;-55
2022/04/03 04:13:50;;;;;;;11.70;10.60;;;;;;;;;;5012949;28;20196;-56
2022/04/03 04:16:15;;;;;;;12.17;10.73;;;2.10;99.90;;;;;;5013434;28;20200;-52
2022/04/03 04:18:42;;;;;;;11.87;10.57;;;1.90;99.90;;;;;;5019716;28;20179;-51
2022/04/03 04:21:10;;;;;;;12.60;11.40;;;;;;;;;;5029085;28;20176;-51
2022/04/03 04:23:35;;;;;;;12.03;10.77;;;2.20;99.90;;;;;;5027709;28;20446;-53
2022/04/03 04:26:01;;;;;;;11.20;10.10;;;2.00;99.90;;;;;;5032550;28;20428;-52
2022/04/03 04:28:27;;;;;;;11.97;10.77;;;2.10;99.90;;;;;;5032293;28;20713;-53
2022/04/03 04:30:54;;;;;;;12.13;10.93;;;;;;;;;;5032564;28;20541;-54
2022/04/03 04:33:20;;;;;;;13.10;11.50;;;2.10;99.90;;;;;;5032068;28;20191;-54
2022/04/03 04:35:45;;;;;;;12.53;11.23;;;;;;;;;;5032535;28;20172;-55
2022/04/03 04:38:11;;;;;;;13.87;11.50;;;;;;;;;;5013080;28;20194;-55
2022/04/03 04:40:37;;;;;;;11.80;10.60;;;2.10;99.90;;;;;;5012639;28;20173;-52
2022/04/03 04:43:02;;;;;;;12.43;11.07;;;2.10;99.90;;;;;;5012508;28;20598;-55
2022/04/03 04:45:28;;;;;;;12.27;11.07;;;2.40;99.90;;;;;;5012549;28;20255;-51
2022/04/03 04:47:59;;;;;;;12.43;11.13;;;1.90;99.90;;;;;;5012835;28;20633;-55
2022/04/03 04:50:29;;;;;;;13.37;11.53;;;2.10;99.90;;;;;;5012506;28;20169;-52
2022/04/03 04:52:56;;;;;;;12.57;11.37;;;2.10;99.90;;;;;;5020822;28;20431;-53
2022/04/03 04:55:22;;;;;;;11.63;10.50;;;2.20;99.90;;;;;;5012230;28;20453;-53
2022/04/03 04:57:56;;;;;;;12.60;11.17;;;2.20;99.90;;;;;;5012629;28;20173;-51
2022/04/03 05:00:27;;;;;;;12.13;10.93;;;2.20;99.90;;;;;;5012267;28;20176;-51
2022/04/03 05:02:52;;;;;;;13.00;11.70;;;2.40;99.90;;;;;;5012150;28;20208;-51
2022/04/03 05:05:20;;;;;;;11.93;10.73;;;2.30;99.90;;;;;;5012554;28;20462;-55
2022/04/03 05:07:46;;;;;;;12.27;10.97;;;2.80;99.90;;;;;;5012235;28;20642;-55
2022/04/03 05:10:12;;;;;;;12.30;11.00;;;2.30;99.90;;;;;;5012394;28;20184;-54
2022/04/03 05:12:38;;;;;;;11.73;10.53;;;2.60;99.90;;;;;;5011744;28;20557;-53
2022/04/03 05:15:06;;;;;;;12.20;10.90;;;2.70;99.90;;;;;;5012431;28;20438;-54
2022/04/03 05:17:31;;;;;;;11.67;10.57;;;2.90;99.90;;;;;;5012116;28;20238;-52
2022/04/03 05:19:57;;;;;;;11.20;10.10;;;2.80;99.90;;;;;;5012446;28;20569;-52
2022/04/03 05:22:23;;;;;;;11.93;10.77;;;2.80;99.90;;;;;;5011400;28;20212;-55
2022/04/03 05:24:50;;;;;;;11.20;10.03;;;2.80;99.90;;;;;;5011767;28;20234;-55
2022/04/03 05:27:17;;;;;;;11.40;10.20;;;2.70;99.90;;;;;;5023004;28;20791;-53
2022/04/03 05:29:43;;;;;;;11.47;10.37;;;;;;;;;;5047052;28;20176;-56
2022/04/03 05:32:09;;;;;;;10.73;9.50;;;;;;;;;;5031657;28;20735;-55
2022/04/03 05:34:35;;;;;;;11.73;10.00;;;;;;;;;;5031448;28;20168;-55
2022/04/03 05:37:00;;;;;;;10.87;9.77;;;2.70;99.90;;;;;;5031678;28;20182;-54
2022/04/03 05:39:26;;;;;;;11.30;10.10;;;2.80;99.90;;;;;;5031621;28;20168;-52
2022/04/03 05:41:55;;;;;;;11.17;10.07;;;;;;;;;;5029031;28;20211;-55
2022/04/03 05:44:21;;;;;;;10.73;9.73;;;2.60;99.90;;;;;;5027357;28;20640;-53
2022/04/03 05:46:47;;;;;;;10.60;9.60;;;2.80;99.90;;;;;;5031291;28;20207;-52
2022/04/03 05:49:12;;;;;;;11.50;10.30;;;2.60;99.90;;;;;;5031118;28;20183;-55
2022/04/03 05:51:38;;;;;;;10.60;9.60;;;;;;;;;;5031137;28;20223;-54
2022/04/03 05:54:04;;;;;;;10.40;9.40;;;2.80;99.90;;;;;;5031111;28;20596;-56
2022/04/03 05:56:31;;;;;;;11.30;10.20;;;3.00;99.90;;;;;;5031356;28;20183;-54
2022/04/03 05:58:57;;;;;;;11.20;10.00;;;3.20;99.90;;;;;;5031425;28;20164;-53
2022/04/03 06:01:23;;;;;;;11.07;9.97;;;3.20;99.90;;;;;;5030945;28;20230;-55
2022/04/03 06:03:49;;;;;;;12.07;10.87;;;3.20;99.90;;;;;;5031186;28;20186;-55
2022/04/03 06:06:15;;;;;;;10.57;9.53;;;3.40;99.90;;;;;;5031299;28;20294;-53
2022/04/03 06:08:41;;;;;;;11.70;10.50;;;4.10;99.90;;;;;;5031382;28;20250;-54
2022/04/03 06:11:07;;;;;;;11.47;10.30;;;;;;;;;;5031230;28;20286;-55
2022/04/03 06:13:33;;;;;;;11.73;10.60;;;;;;;;;;5044598;28;20880;-55
2022/04/03 06:15:59;;;;;;;11.07;9.97;;;;;;;;;;5029828;28;20544;-53
2022/04/03 06:18:24;;;;;;;11.90;10.47;;;2.90;99.90;;;;;;5029454;28;20572;-54
2022/04/03 06:20:51;;;;;;;11.40;10.30;;;2.70;99.90;;;;;;5029715;28;20187;-52
2022/04/03 06:23:19;;;;;;;10.43;9.37;;;2.50;99.90;;;;;;5030938;28;20213;-53
2022/04/03 06:25:47;;;;;;;11.80;10.60;;;2.30;99.90;;;;;;5031426;28;20179;-51
2022/04/03 06:28:13;;;;;;;11.67;10.50;;;2.70;99.90;;;;;;5030848;28;20221;-51
2022/04/03 06:30:39;;;;;;;10.40;9.33;;;3.40;99.90;;;;;;5031219;28;21028;-52
2022/04/03 06:33:05;;;;;;;10.73;9.63;;;2.80;99.90;;;;;;5030382;28;20584;-54
2022/04/03 06:35:31;;;;;;;11.20;9.80;;;2.90;99.90;;;;;;5031932;28;20202;-54
2022/04/03 06:37:56;;;;;;;10.43;9.43;;;3.10;99.90;;;;;;5034624;28;20270;-51
2022/04/03 06:40:25;;;;;;;10.07;9.07;;;3.10;99.90;;;;;;5034923;28;20576;-51
2022/04/03 06:42:52;;;;;;;11.00;9.90;;;2.80;99.90;;;;;;5034547;28;20206;-52
2022/04/03 06:45:18;;;;;;;10.33;9.30;;;2.40;99.90;;;;;;5034575;28;20175;-54
2022/04/03 06:47:44;;;;;;;10.63;9.63;;;2.60;99.90;;;;;;5034847;28;20271;-55
2022/04/03 06:50:09;;;;;;;10.43;9.33;;;2.60;99.90;;;;;;5034220;28;20195;-55
2022/04/03 06:52:36;;;;;;;10.37;9.27;;;2.80;99.90;;;;;;5034123;28;20206;-51
2022/04/03 06:55:03;;;;;;;11.30;9.70;;;2.80;99.90;;;;;;5034354;28;20178;-54
2022/04/03 06:57:28;;;;;;;11.03;9.93;;;2.50;99.90;;;;;;5034594;28;20194;-52
2022/04/03 06:59:54;;;;;;;9.93;8.90;;;2.60;99.90;;;;;;5034135;28;20257;-54
2022/04/03 07:02:19;;;;;;;9.50;8.50;;;2.60;99.90;;;;;;5034084;28;20204;-55
2022/04/03 07:04:45;;;;;;;9.97;8.73;;;2.50;99.90;;;;;;5034633;28;20180;-55
2022/04/03 07:07:11;;;;;;;10.20;9.20;;;;;;;;;;5031802;28;20191;-55
2022/04/03 07:09:40;;;;;;;9.47;8.57;;;2.50;99.90;;;;;;5034189;28;20176;-55
2022/04/03 07:12:06;;;;;;;10.40;8.87;;;;;;;;;;5033275;28;20211;-57
2022/04/03 07:14:32;;;;;;;10.23;8.77;;;2.40;99.90;;;;;;5033627;28;20186;-51
2022/04/03 07:16:57;;;;;;;10.50;9.00;;;2.30;99.90;;;;;;5033541;28;20552;-53
2022/04/03 07:19:23;;;;;;;9.37;8.47;;;2.40;99.90;;;;;;5033941;28;20518;-53
2022/04/03 07:21:50;;;;;;;11.10;7.83;;;2.30;99.90;;;;;;5033701;28;20218;-52
2022/04/03 07:24:17;;;;;;;9.57;8.00;;;;;;;;;;5033193;28;20225;-52
2022/04/03 07:26:43;;;;;;;9.20;8.30;;;2.10;99.90;;;;;;5033274;28;20187;-52
2022/04/03 07:29:09;;;;;;;10.13;9.10;;;2.00;99.90;;;;;;5033876;28;20184;-53
2022/04/03 07:31:35;;;;;;;9.23;8.33;;;;;;;;;;5033488;28;20222;-54
2022/04/03 07:34:00;;;;;;;9.30;8.40;;;2.50;99.90;;;;;;5033436;28;20184;-55
2022/04/03 07:36:26;;;;;;;8.77;7.90;;;2.30;99.90;;;;;;5034114;28;20190;-52
2022/04/03 07:38:52;;;;;;;8.53;7.73;;;2.60;99.90;;;;;;5033477;28;20184;-56
2022/04/03 07:41:19;;;;;;;8.77;7.90;;;2.70;99.90;;;;;;5033060;28;20182;-52
2022/04/03 07:43:45;;;;;;;8.60;7.70;;;2.90;99.90;;;;;;5033422;28;20780;-52
2022/04/03 07:46:15;;;;;;;8.27;7.47;;;3.30;99.90;;;;;;5033003;28;20233;-51
2022/04/03 07:48:40;;;;;;;9.13;7.30;;;3.40;99.90;;;;;;5033302;28;20267;-52
2022/04/03 07:51:06;;;;;;;8.27;7.47;;;;;;;;;;5032584;28;20325;-52
2022/04/03 07:53:32;;;;;;;9.53;7.70;;;3.40;99.90;;;;;;5032839;28;20680;-52
2022/04/03 07:55:57;;;;;;;8.37;7.57;;;3.20;99.90;;;;;;5033194;28;20198;-51
2022/04/03 07:58:23;;;;;;;8.77;7.73;;;3.00;99.90;;;;;;5033244;28;20540;-52
2022/04/03 08:00:48;;;;;;;8.07;6.80;;;3.10;99.90;;;;;;5032902;28;20179;-52
2022/04/03 08:03:14;;;;;;;8.03;7.33;;;3.00;99.90;;;;;;5032924;28;20195;-50
2022/04/03 08:05:40;;;;;;;8.60;7.60;;;3.20;99.90;;;;;;5032976;28;20794;-54
2022/04/03 08:08:06;;;;;;;8.83;7.93;;;2.80;99.90;;;;;;5033196;28;20255;-51
2022/04/03 08:10:32;;;;;;;8.57;7.67;;;2.70;99.90;;;;;;5032709;28;20183;-50
2022/04/03 08:12:57;;;;;;;9.67;8.03;;;2.90;99.90;;;;;;5032632;28;20211;-51
2022/04/03 08:15:24;;;;;;;8.53;7.67;;;;;;;;;;5032455;28;20175;-54
2022/04/03 08:17:49;;;;;;;8.37;7.57;;;3.10;99.90;;;;;;5032675;28;20667;-53
2022/04/03 08:20:16;;;;;;;8.80;7.90;;;3.10;99.90;;;;;;5032716;28;20172;-52
2022/04/03 08:22:42;;;;;;;10.70;7.97;;;2.90;99.90;;;;;;5031996;28;20692;-51
2022/04/03 08:25:09;;;;;;;9.07;7.70;;;2.90;99.90;;;;;;5032821;28;20168;-51
2022/04/03 08:27:42;;;;;;;7.87;7.07;;;3.30;99.90;;;;;;5032738;28;20176;-51
2022/04/03 08:30:10;;;;;;;8.33;7.53;;;3.20;99.90;;;;;;5031744;28;20176;-55
2022/04/03 08:32:35;;;;;;;9.00;7.47;;;3.20;99.90;;;;;;5031428;28;20282;-52
2022/04/03 08:35:01;;;;;;;9.47;7.90;;;3.00;99.90;;;;;;5032914;28;20259;-51
2022/04/03 08:37:30;;;;;;;9.00;7.80;;;3.30;99.90;;;;;;5032553;28;20164;-54
2022/04/03 08:39:55;;;;;;;8.20;7.30;;;3.50;99.90;;;;;;5047834;28;20171;-52
2022/04/03 08:42:21;;;;;;;7.87;7.03;;;3.40;99.90;;;;;;5032014;28;20195;-55
2022/04/03 08:44:46;;;;;;;7.43;6.20;;;3.50;99.90;;;;;;5032463;28;20491;-54
2022/04/03 08:47:16;;;;;;;7.93;7.13;;;3.40;99.90;;;;;;5032547;28;20221;-52
2022/04/03 08:49:41;;;;;;;8.30;7.50;;;3.30;99.90;;;;;;5032348;28;20258;-51
2022/04/03 08:52:09;;;;;;;8.73;6.87;;;3.50;99.90;;;;;;5031926;28;20287;-53
2022/04/03 08:54:37;;;;;;;7.77;6.73;;;3.40;99.90;;;;;;5032172;28;20254;-51
2022/04/03 08:57:02;;;;;;;7.50;6.53;;;3.50;99.90;;;;;;5032314;28;20176;-53
2022/04/03 08:59:28;;;;;;;7.00;6.07;;;3.60;99.90;;;;;;5030402;28;20651;-51
2022/04/03 09:01:53;;;;;;;7.47;6.73;;;3.60;99.90;;;;;;5031290;28;20548;-51
2022/04/03 09:04:21;;;;;;;6.87;6.20;;;3.60;99.90;;;;;;5031978;28;20533;-55
2022/04/03 09:07:00;;;;;;;6.90;6.20;;;3.70;99.90;;;;;;5032086;28;20164;-55
2022/04/03 09:09:27;;;;;;;7.60;6.90;;;4.20;99.90;;;;;;5032269;28;20187;-57
2022/04/03 09:12:11;;;;;;;7.10;6.20;;;4.40;99.90;;;;;;5031784;28;20241;-54
2022/04/03 09:14:54;;;;;;;8.00;6.27;;;4.40;99.90;;;;;;5031916;28;20182;-54
2022/04/03 09:17:44;;;;;;;6.83;6.10;;;4.20;99.90;;;;;;5031840;28;20195;-52
2022/04/03 09:20:19;;;;;;;6.40;5.80;;;3.90;99.90;;;;;;5032240;28;20247;-51
2022/04/03 09:22:49;;;;;;;6.80;6.07;;;3.90;99.90;;;;;;5030871;28;20215;-54
2022/04/03 09:25:17;;;;;;;7.27;5.87;;;4.10;99.90;;;;;;5031897;28;20645;-52
2022/04/03 09:27:55;;;;;;;6.63;5.73;;;4.10;99.90;;;;;;5031687;28;20246;-51
2022/04/03 09:30:45;;;;;;;6.63;5.90;;;4.00;99.90;;;;;;5031848;28;20176;-53
2022/04/03 09:33:13;;;;;;;5.90;5.30;;;3.80;99.90;;;;;;5031126;28;20266;-52
2022/04/03 09:36:01;;;;;;;6.80;6.10;;;3.80;99.90;;;;;;5032021;28;20168;-55
2022/04/03 09:38:27;;;;;;;6.40;5.80;;;3.70;99.90;;;;;;5031385;28;20175;-55
2022/04/03 09:40:53;;;;;;;8.20;7.40;;;4.00;99.90;;;;;;5031012;28;20694;-51
2022/04/03 09:43:19;;;;;;;7.37;6.63;;;4.10;99.90;;;;;;5030361;28;20199;-53
2022/04/03 09:45:46;;;;;;;10.63;8.37;;;4.50;99.90;;;;;;5030448;28;20172;-52
2022/04/03 09:48:20;;;;;;;7.90;6.37;;;4.30;99.90;;;;;;5031566;28;20258;-54
2022/04/03 09:50:54;;;;;;;7.53;6.73;;;4.40;99.90;;;;;;5031135;28;20167;-54
2022/04/03 09:53:20;;;;;;;32.30;26.10;;;4.50;99.90;;;;;;5031101;28;20218;-51
2022/04/03 09:55:46;;;;;;;17.27;14.10;;;4.60;99.90;;;;;;5031459;28;20196;-50
2022/04/03 09:58:12;;;;;;;7.87;6.27;;;4.70;99.90;;;;;;5031128;28;20251;-52
2022/04/03 10:00:40;;;;;;;7.17;6.47;;;4.10;99.90;;;;;;5030699;28;20172;-48
2022/04/03 10:03:10;;;;;;;8.17;7.37;;;4.30;99.90;;;;;;5031501;28;20183;-56
2022/04/03 10:05:36;;;;;;;8.37;6.67;;;3.90;99.90;;;;;;5030787;28;20262;-51
2022/04/03 10:08:04;;;;;;;7.33;6.63;;;3.80;99.90;;;;;;5030836;28;20168;-54
2022/04/03 10:10:31;;;;;;;9.00;7.07;;;3.70;99.90;;;;;;5033572;28;20179;-54
2022/04/03 10:12:58;;;;;;;8.17;7.27;;;3.90;99.90;;;;;;5033504;28;20207;-53
2022/04/03 10:15:28;;;;;;;7.90;7.10;;;4.10;99.90;;;;;;5035428;28;20200;-53
2022/04/03 10:17:54;;;;;;;7.47;6.70;;;4.30;99.90;;;;;;5034948;28;20174;-56
2022/04/03 10:20:25;;;;;;;7.07;6.37;;;4.60;99.90;;;;;;5035137;28;20248;-55
2022/04/03 10:22:55;;;;;;;7.47;6.73;;;4.60;99.90;;;;;;5034360;28;20203;-54
2022/04/03 10:25:31;;;;;;;7.97;6.73;;;4.40;99.90;;;;;;5036724;28;20188;-55
2022/04/03 10:28:02;;;;;;;8.40;6.23;;;4.60;99.90;;;;;;5034645;28;20236;-55
2022/04/03 10:30:39;;;;;;;6.87;6.17;;;4.70;99.90;;;;;;5033371;28;20172;-52
2022/04/03 10:33:06;;;;;;;7.00;6.33;;;4.80;99.90;;;;;;5032282;28;20214;-51
2022/04/03 10:35:31;;;;;;;7.57;6.57;;;4.90;99.90;;;;;;5032397;28;20251;-52
2022/04/03 10:38:05;;;;;;;7.70;6.90;;;4.70;99.90;;;;;;5034181;28;20267;-52
2022/04/03 10:40:35;;;;;;;7.87;6.60;;;4.40;99.90;;;;;;5034553;28;20168;-49
2022/04/03 10:43:05;;;;;;;7.20;6.43;;;4.10;99.90;;;;;;5034483;28;20337;-51
2022/04/03 10:45:46;;;;;;;6.60;6.00;;;3.80;99.90;;;;;;5034594;28;20225;-49
2022/04/03 10:48:20;;;;;;;8.70;6.53;;;3.50;99.90;;;;;;5035113;28;20164;-52
2022/04/03 10:51:02;;;;;;;7.40;6.40;;;3.40;99.90;;;;;;5033969;28;20214;-52
2022/04/03 10:53:31;;;;;;;10.70;7.40;;;3.30;99.90;;;;;;5034368;28;20192;-52
2022/04/03 10:55:58;;;;;;;7.33;6.43;;;3.30;99.90;;;;;;5034343;28;20529;-53
2022/04/03 10:58:24;;;;;;;9.07;6.77;;;3.40;99.90;;;;;;5034563;28;20192;-52
2022/04/03 11:00:51;;;;;;;7.83;7.03;;;3.60;99.90;;;;;;5034599;28;20195;-54
2022/04/03 11:03:17;;;;;;;8.53;7.43;;;3.40;99.90;;;;;;5033961;28;20391;-52
2022/04/03 11:05:45;;;;;;;10.37;6.73;;;3.50;99.90;;;;;;5034256;28;20251;-51
2022/04/03 11:08:11;;;;;;;8.37;7.00;;;3.40;99.90;;;;;;5034069;28;20570;-52
2022/04/03 11:10:52;;;;;;;8.33;7.17;;;3.00;99.90;;;;;;5034588;28;20306;-49
2022/04/03 11:13:31;;;;;;;7.97;7.17;;;2.90;99.90;;;;;;5033866;28;20231;-57
2022/04/03 11:15:57;;;;;;;8.77;7.77;;;3.00;99.90;;;;;;5033909;28;20168;-55
2022/04/03 11:18:32;;;;;;;9.27;8.13;;;3.40;99.90;;;;;;5033938;28;20200;-53
2022/04/03 11:21:21;;;;;;;9.13;7.80;;;2.90;99.90;;;;;;5048646;28;20459;-52
2022/04/03 11:24:00;;;;;;;10.03;7.70;;;2.90;99.90;;;;;;5033515;28;20560;-55
2022/04/03 11:26:26;;;;;;;8.73;7.33;;;2.90;99.90;;;;;;5034231;28;20168;-55
2022/04/03 11:28:52;;;;;;;8.67;7.77;;;2.90;99.90;;;;;;5033957;28;20183;-53
2022/04/03 11:31:18;;;;;;;10.10;7.90;;;;;;;;;;5032923;28;20569;-56
2022/04/03 11:33:46;;;;;;;8.83;7.93;;;3.00;99.90;;;;;;5033484;28;20251;-55
2022/04/03 11:36:14;;;;;;;8.60;7.70;;;3.10;99.90;;;;;;5033359;28;20172;-54
2022/04/03 11:38:40;;;;;;;8.97;8.03;;;3.10;99.90;;;;;;5032948;28;20175;-51
2022/04/03 11:41:09;;;;;;;8.73;7.83;;;3.20;99.90;;;;;;5033125;28;20557;-53
2022/04/03 11:43:35;;;;;;;8.17;7.40;;;3.50;99.90;;;;;;5033123;28;20195;-52
2022/04/03 11:46:03;;;;;;;8.37;7.03;;;3.40;99.90;;;;;;5032772;28;20702;-55
2022/04/03 11:48:31;;;;;;;8.10;7.30;;;3.30;99.90;;;;;;5032805;28;20175;-56
2022/04/03 11:51:23;;;;;;;7.90;7.10;;;3.40;99.90;;;;;;5033388;28;20664;-54
2022/04/03 11:53:59;;;;;;;7.23;6.53;;;3.60;99.90;;;;;;5031283;28;20184;-53
2022/04/03 11:56:26;;;;;;;6.80;6.13;;;3.90;99.90;;;;;;5033327;28;20163;-57
2022/04/03 11:58:56;;;;;;;7.83;6.27;;;3.90;99.90;;;;;;5033299;28;20172;-53
2022/04/03 12:01:36;;;;;;;6.50;5.80;;;4.30;99.90;;;;;;5032931;28;20663;-53
2022/04/03 12:04:10;;;;;;;6.30;5.70;;;4.20;99.90;;;;;;5028978;28;20173;-56
2022/04/03 12:06:37;;;;;;;6.60;5.87;;;4.00;99.90;;;;;;5032029;28;20175;-56
2022/04/03 12:09:11;;;;;;;6.93;5.83;;;3.60;99.90;;;;;;5031316;28;20306;-53
2022/04/03 12:11:38;;;;;;;7.13;6.43;;;3.40;99.90;;;;;;5032814;28;20282;-52
2022/04/03 12:14:05;;;;;;;6.97;6.30;;;3.60;99.90;;;;;;5032677;28;20572;-56
2022/04/03 12:16:38;;;;;;;7.20;5.80;;;3.70;99.90;;;;;;5029297;28;20180;-56
2022/04/03 12:19:17;;;;;;;8.47;6.10;;;3.40;99.90;;;;;;5031585;28;20551;-52
2022/04/03 12:21:51;;;;;;;6.90;5.83;;;3.40;99.90;;;;;;5023753;28;20204;-54
2022/04/03 12:24:22;;;;;;;7.30;6.50;;;3.50;99.90;;;;;;5032568;28;20179;-55
2022/04/03 12:27:06;;;;;;;8.37;6.60;;;3.50;99.90;;;;;;5032645;28;20171;-50
2022/04/03 12:29:35;;;;;;;6.97;6.23;;;3.50;99.90;;;;;;5032740;28;20186;-55
2022/04/03 12:32:02;;;;;;;7.10;6.40;;;3.40;99.90;;;;;;5032250;28;20204;-50
2022/04/03 12:34:29;;;;;;;7.37;6.63;;;3.30;99.90;;;;;;5031340;28;20172;-51
2022/04/03 12:36:58;;;;;;;8.33;6.53;;;3.30;99.90;;;;;;5031144;28;20168;-51
2022/04/03 12:39:32;;;;;;;7.30;6.53;;;3.40;99.90;;;;;;5032720;28;20163;-52
2022/04/03 12:42:20;;;;;;;7.40;6.10;;;3.40;99.90;;;;;;5032393;28;20186;-52
2022/04/03 12:44:46;;;;;;;6.20;5.47;;;3.40;99.90;;;;;;5032577;28;20164;-56
2022/04/03 12:47:41;;;;;;;7.00;5.93;;;3.40;99.90;;;;;;5032665;28;20174;-54
2022/04/03 12:50:07;;;;;;;6.67;5.97;;;3.50;99.90;;;;;;5032183;28;20179;-55
2022/04/03 12:52:47;;;;;;;5.67;5.17;;;3.30;99.90;;;;;;5031281;28;20203;-56
2022/04/03 12:55:22;;;;;;;6.63;5.90;;;3.60;99.90;;;;;;5032187;28;20653;-57
2022/04/03 13:00:45;;;;;;;7.37;6.20;;;3.70;99.90;;;;;;5031423;28;20210;-57
2022/04/03 13:03:22;;;;;;;7.00;6.30;;;3.60;99.90;;;;;;5031800;28;20782;-55
2022/04/03 13:05:48;;;;;;;6.63;5.67;;;3.50;99.90;;;;;;5032179;28;20171;-54
2022/04/03 13:08:13;;;;;;;6.23;5.63;;;3.50;99.90;;;;;;5032315;28;20163;-56